createdAt,value
2022-09-28T00:45:59.830Z,99349.31
2022-09-28T00:48:28.055Z,99343.91
2022-09-28T00:50:55.922Z,99350.16
2022-09-28T00:53:24.792Z,99359.34
2022-09-28T00:55:53.410Z,99354.75
2022-09-28T00:58:22.808Z,99349.31
2022-09-28T01:47:40.296Z,99325.59
2022-09-28T01:50:11.176Z,99323.94
2022-09-28T01:52:42.873Z,99320.19
2022-09-28T01:55:10.906Z,99324.94
2022-09-28T01:57:39.563Z,99315.13
2022-09-28T02:00:08.707Z,99316.63
2022-09-28T02:47:05.616Z,99322.25
2022-09-28T02:49:39.273Z,99298.88
2022-09-28T02:52:11.824Z,99302.63
2022-09-28T02:54:47.617Z,99302.25
2022-09-28T02:57:19.634Z,99298.03
2022-09-28T02:59:48.657Z,99294.31
2022-09-28T03:46:09.835Z,99257.16
2022-09-28T03:48:43.018Z,99264.41
2022-09-28T03:51:12.089Z,99263.38
2022-09-28T03:53:39.803Z,99253.75
2022-09-28T03:56:08.331Z,99256.28
2022-09-28T03:58:36.037Z,99251.91
2022-09-28T04:30:25.119Z,99229.56
2022-09-28T04:32:53.674Z,99235.00
2022-09-28T04:35:21.267Z,99236.94
2022-09-28T04:37:48.967Z,99238.47
2022-09-28T04:40:16.973Z,99240.97
2022-09-28T04:42:44.992Z,99240.16
2022-09-28T04:45:13.473Z,99239.47
2022-09-28T04:47:46.295Z,99238.47
2022-09-28T04:50:24.198Z,99241.34
2022-09-28T04:53:07.798Z,99236.75
2022-09-28T04:55:35.400Z,99242.19
2022-09-28T04:58:04.723Z,99241.16
2022-09-28T05:00:35.339Z,99238.81
2022-09-28T05:03:20.599Z,99241.34
2022-09-28T05:06:14.959Z,99239.66
2022-09-28T05:08:46.842Z,99251.16
2022-09-28T05:11:14.901Z,99248.66
2022-09-28T05:13:43.083Z,99248.47
2022-09-28T05:16:10.993Z,99248.47
2022-09-28T05:19:00.155Z,99247.41
2022-09-28T05:21:29.302Z,99244.69
2022-09-28T05:23:58.711Z,99240.97
2022-09-28T05:26:27.726Z,99238.47
2022-09-28T05:28:55.239Z,99240.97
2022-09-28T05:31:43.125Z,99249.09
2022-09-28T05:34:33.871Z,99241.81
2022-09-28T05:37:01.477Z,99250.31
2022-09-28T05:39:30.906Z,99241.34
2022-09-28T05:41:59.242Z,99238.47
2022-09-28T05:44:26.908Z,99236.56
2022-09-28T05:46:55.294Z,99227.63
2022-09-28T05:49:23.711Z,99224.09
2022-09-28T05:51:52.583Z,99225.09
2022-09-28T05:54:21.195Z,99223.41
2022-09-28T05:56:48.735Z,99215.97
2022-09-28T05:59:17.057Z,99215.97
2022-09-28T06:01:44.595Z,99215.28
2022-09-28T06:04:14.726Z,99212.56
2022-09-28T06:06:43.289Z,99214.63
2022-09-28T06:09:12.466Z,99209.22
2022-09-28T06:11:59.630Z,99219.22
2022-09-28T06:14:38.873Z,99205.50
2022-09-28T06:17:06.414Z,99213.44
2022-09-28T06:19:34.031Z,99215.47
2022-09-28T06:22:20.185Z,99213.44
2022-09-28T06:24:59.488Z,99215.28
2022-09-28T06:27:27.450Z,99216.31
2022-09-28T06:29:54.949Z,99218.84
2022-09-28T06:32:22.432Z,99214.06
2022-09-28T06:34:56.081Z,99211.63
2022-09-28T06:37:27.605Z,99208.84
2022-09-28T06:39:55.992Z,99210.44
2022-09-28T06:42:24.992Z,99210.53
2022-09-28T06:45:21.823Z,99207.34
2022-09-28T06:48:07.935Z,99204.91
2022-09-28T06:50:40.495Z,99206.63
2022-09-28T06:53:28.634Z,99199.50
2022-09-28T06:56:00.143Z,99197.44
2022-09-28T06:58:30.271Z,99200.34
2022-09-28T07:01:00.532Z,99193.91
2022-09-28T07:03:31.156Z,99201.19
2022-09-28T07:06:18.384Z,99208.28
2022-09-28T07:09:25.989Z,99199.50
2022-09-28T07:12:10.711Z,99193.06
2022-09-28T07:15:09.809Z,99198.50
2022-09-28T07:17:49.270Z,99207.44
2022-09-28T07:20:22.287Z,99204.91
2022-09-28T07:22:53.547Z,99206.63
2022-09-28T07:25:25.528Z,99204.91
2022-09-28T07:28:17.215Z,99212.03
2022-09-28T07:30:46.656Z,99220.16
2022-09-28T07:33:33.248Z,99211.16
2022-09-28T07:36:22.917Z,99216.59
2022-09-28T07:38:51.657Z,99218.28
2022-09-28T07:41:22.735Z,99213.69
2022-09-28T07:43:52.057Z,99220.81
2022-09-28T07:46:21.757Z,99220.81
2022-09-28T07:48:56.651Z,99209.97
2022-09-28T07:51:54.531Z,99219.09
2022-09-28T07:54:45.872Z,99210.78
2022-09-28T07:57:33.306Z,99211.66
2022-09-28T08:00:21.763Z,99212.88
2022-09-28T08:02:51.259Z,99220.81
2022-09-28T08:05:23.682Z,99210.78
2022-09-28T08:07:51.200Z,99210.78
2022-09-28T08:10:19.428Z,99215.19
2022-09-28T08:13:07.525Z,99215.38
2022-09-28T08:15:51.839Z,99211.66
2022-09-28T08:18:28.327Z,99221.44
2022-09-28T08:21:13.247Z,99218.72
2022-09-28T08:23:40.717Z,99210.78
2022-09-28T08:26:12.093Z,99215.00
2022-09-28T08:28:43.133Z,99220.44
2022-09-28T08:31:31.258Z,99220.44
2022-09-28T08:34:23.983Z,99224.81
2022-09-28T08:37:20.534Z,99227.53
2022-09-28T08:40:13.213Z,99217.34
2022-09-28T08:42:54.690Z,99228.19
2022-09-28T08:45:42.172Z,99220.69
2022-09-28T08:48:56.258Z,99225.09
2022-09-28T08:52:02.448Z,99226.97
2022-09-28T08:54:56.975Z,99221.38
2022-09-28T08:57:41.954Z,99225.75
2022-09-28T09:00:11.875Z,99232.03
2022-09-28T09:02:40.520Z,99224.72
2022-09-28T09:05:15.406Z,99225.56
2022-09-28T09:08:04.671Z,99229.78
2022-09-28T09:10:37.745Z,99225.19
2022-09-28T09:13:07.243Z,99223.50
2022-09-28T09:15:38.881Z,99229.78
2022-09-28T09:18:22.400Z,99224.34
2022-09-28T09:21:10.916Z,99229.78
2022-09-28T09:23:44.339Z,99230.59
2022-09-28T09:26:16.772Z,99233.13
2022-09-28T09:28:57.894Z,99233.13
2022-09-28T09:31:38.170Z,99234.81
2022-09-28T09:34:19.654Z,99227.72
2022-09-28T09:36:59.748Z,99222.09
2022-09-28T09:40:19.138Z,99236.47
2022-09-28T09:43:07.232Z,99234.63
2022-09-28T09:45:54.871Z,99232.75
2022-09-28T09:48:35.884Z,99234.44
2022-09-28T09:51:04.209Z,99239.00
2022-09-28T09:53:37.609Z,99225.25
2022-09-28T09:56:10.256Z,99241.53
2022-09-28T09:58:52.034Z,99240.69
2022-09-28T10:01:34.146Z,99238.81
2022-09-28T10:04:20.422Z,99226.97
2022-09-28T10:06:49.328Z,99244.03
2022-09-28T10:09:19.092Z,99226.13
2022-09-28T10:11:50.216Z,99236.09
2022-09-28T10:14:20.065Z,99242.38
2022-09-28T10:16:53.778Z,99242.38
2022-09-28T10:19:43.884Z,99246.94
2022-09-28T10:22:30.231Z,99250.69
2022-09-28T10:25:00.008Z,99250.69
2022-09-28T10:27:30.873Z,99252.53
2022-09-28T10:29:58.972Z,99249.00
2022-09-28T10:32:27.763Z,99249.00
2022-09-28T10:35:12.153Z,99254.41
2022-09-28T10:37:47.559Z,99259.84
2022-09-28T10:40:38.699Z,99255.25
2022-09-28T10:43:09.018Z,99255.25
2022-09-28T10:45:37.290Z,99266.94
2022-09-28T10:48:06.102Z,99264.44
2022-09-28T10:50:34.433Z,99262.56
2022-09-28T10:53:12.721Z,99263.56
2022-09-28T10:56:04.939Z,99262.56
2022-09-28T10:58:36.938Z,99265.25
2022-09-28T11:01:08.191Z,99257.97
2022-09-28T11:03:35.812Z,99265.06
2022-09-28T11:06:07.000Z,99267.78
2022-09-28T11:08:37.113Z,99265.25
2022-09-28T11:11:06.356Z,99266.09
2022-09-28T11:13:40.179Z,99262.91
2022-09-28T11:16:09.254Z,99274.41
2022-09-28T11:18:38.588Z,99262.56
2022-09-28T11:21:11.098Z,99259.84
2022-09-28T11:23:42.119Z,99259.00
2022-09-28T11:26:19.134Z,99258.16
2022-09-28T11:28:49.230Z,99259.00
2022-09-28T11:31:26.247Z,99263.56
2022-09-28T11:34:06.276Z,99261.91
2022-09-28T11:37:00.962Z,99260.84
2022-09-28T11:39:30.305Z,99264.44
2022-09-28T11:42:07.139Z,99252.72
2022-09-28T11:44:44.611Z,99258.16
2022-09-28T11:47:33.469Z,99261.03
2022-09-28T11:50:02.325Z,99263.56
2022-09-28T11:52:33.436Z,99256.50
2022-09-28T11:55:02.334Z,99256.50
2022-09-28T11:57:30.594Z,99264.44
2022-09-28T11:59:59.833Z,99261.72
2022-09-28T12:02:28.575Z,99263.56
2022-09-28T12:05:06.179Z,99260.84
2022-09-28T12:07:34.151Z,99268.16
2022-09-28T12:10:05.182Z,99264.44
2022-09-28T12:12:35.120Z,99261.91
2022-09-28T12:15:14.103Z,99265.25
2022-09-28T12:17:41.895Z,99272.56
2022-09-28T12:20:11.767Z,99260.84
2022-09-28T12:22:40.568Z,99253.59
2022-09-28T12:25:11.052Z,99259.84
2022-09-28T12:27:41.170Z,99256.13
2022-09-28T12:30:14.439Z,99254.41
2022-09-28T12:32:42.834Z,99266.94
2022-09-28T12:35:13.675Z,99264.25
2022-09-28T12:37:45.931Z,99257.13
2022-09-28T12:40:37.386Z,99258.81
2022-09-28T12:43:11.282Z,99261.53
2022-09-28T12:46:10.444Z,99256.13
2022-09-28T12:48:43.027Z,99256.13
2022-09-28T12:51:12.857Z,99252.34
2022-09-28T12:53:45.380Z,99256.94
2022-09-28T12:56:16.759Z,99258.63
2022-09-28T12:58:59.830Z,99263.19
2022-09-28T13:01:40.810Z,99267.78
2022-09-28T13:04:20.182Z,99256.75
2022-09-28T13:06:48.634Z,99259.47
2022-09-28T13:09:17.252Z,99264.06
2022-09-28T13:11:46.983Z,99253.22
2022-09-28T13:14:21.516Z,99269.47
2022-09-28T13:16:51.397Z,99262.34
2022-09-28T13:19:21.155Z,99258.63
2022-09-28T13:21:51.070Z,99262.34
2022-09-28T13:24:32.061Z,99256.13
2022-09-28T13:27:02.923Z,99255.25
2022-09-28T13:29:30.409Z,99266.09
2022-09-28T13:31:59.310Z,99262.34
2022-09-28T13:34:27.332Z,99267.97
2022-09-28T13:37:13.266Z,99267.13
2022-09-28T13:39:52.841Z,99259.84
2022-09-28T13:42:34.174Z,99269.84
2022-09-28T13:45:09.507Z,99266.28
2022-09-28T13:47:45.886Z,99267.31
2022-09-28T13:50:16.841Z,99267.97
2022-09-28T13:52:45.504Z,99267.31
2022-09-28T13:55:23.279Z,99271.03
2022-09-28T13:57:52.141Z,99280.88
2022-09-28T14:00:22.061Z,99267.31
2022-09-28T14:02:53.325Z,99278.16
2022-09-28T14:05:34.273Z,99270.03
2022-09-28T14:08:12.815Z,99277.28
2022-09-28T14:10:47.127Z,99278.16
2022-09-28T14:13:14.645Z,99279.00
2022-09-28T14:15:43.797Z,99288.13
2022-09-28T14:18:14.986Z,99285.44
2022-09-28T14:20:43.072Z,99289.00
2022-09-28T14:23:21.307Z,99296.06
2022-09-28T14:26:00.013Z,99297.75
2022-09-28T14:28:31.221Z,99296.25
2022-09-28T14:30:59.552Z,99310.66
2022-09-28T14:33:28.839Z,99306.06
2022-09-28T14:35:57.328Z,99309.63
2022-09-28T14:38:43.199Z,99317.75
2022-09-28T14:41:12.770Z,99311.50
2022-09-28T14:43:59.355Z,99311.50
2022-09-28T14:46:28.574Z,99308.13
2022-09-28T14:48:58.191Z,99316.09
2022-09-28T14:51:45.037Z,99309.34
2022-09-28T14:54:17.103Z,99319.25
2022-09-28T14:56:45.337Z,99329.34
2022-09-28T14:59:13.174Z,99321.00
2022-09-28T15:01:40.737Z,99321.88
2022-09-28T15:04:10.732Z,99326.44
2022-09-28T15:06:45.263Z,99328.94
2022-09-28T15:09:27.072Z,99331.84
2022-09-28T15:11:55.923Z,99333.72
2022-09-28T15:14:25.256Z,99320.00
2022-09-28T15:16:55.312Z,99330.00
2022-09-28T15:19:29.159Z,99323.94
2022-09-28T15:21:57.091Z,99326.63
2022-09-28T15:24:25.879Z,99325.78
2022-09-28T15:26:54.536Z,99332.25
2022-09-28T15:29:23.565Z,99335.78
2022-09-28T15:31:54.504Z,99354.75
2022-09-28T15:34:48.392Z,99344.75
2022-09-28T15:37:16.155Z,99338.50
2022-09-28T15:39:44.511Z,99340.06
2022-09-28T15:42:12.008Z,99346.72
2022-09-28T15:44:39.455Z,99352.59
2022-09-28T15:47:11.698Z,99357.63
2022-09-28T15:49:42.224Z,99356.81
2022-09-28T15:52:22.232Z,99356.81
2022-09-28T15:54:50.641Z,99354.75
2022-09-28T15:57:32.838Z,99350.53
2022-09-28T16:00:00.784Z,99356.00
2022-09-28T16:02:28.423Z,99357.59
2022-09-28T16:04:58.930Z,99365.84
2022-09-28T16:07:28.775Z,99353.13
2022-09-28T16:10:03.459Z,99359.56
2022-09-28T16:12:42.534Z,99360.44
2022-09-28T16:15:14.269Z,99356.84
2022-09-28T16:17:41.854Z,99363.31
2022-09-28T16:20:21.857Z,99365.84
2022-09-28T16:22:49.423Z,99368.75
2022-09-28T16:25:17.639Z,99374.53
2022-09-28T16:27:45.751Z,99379.56
2022-09-28T16:30:21.768Z,99368.25
2022-09-28T16:32:50.566Z,99378.88
2022-09-28T16:35:21.171Z,99389.19
2022-09-28T16:37:49.073Z,99391.06
2022-09-28T16:40:17.045Z,99394.13
2022-09-28T16:42:48.880Z,99397.00
2022-09-28T16:45:18.652Z,99403.63
2022-09-28T16:47:47.374Z,99400.28
2022-09-28T16:50:15.260Z,99399.63
2022-09-28T16:53:01.766Z,99397.91
2022-09-28T16:55:39.908Z,99406.03
2022-09-28T16:58:08.890Z,99405.22
2022-09-28T17:00:38.141Z,99404.38
2022-09-28T17:03:11.506Z,99403.16
2022-09-28T17:05:42.793Z,99405.88
2022-09-28T17:08:12.755Z,99413.16
2022-09-28T17:11:09.339Z,99407.75
2022-09-28T17:14:20.884Z,99419.78
2022-09-28T17:28:31.565Z,99427.13
2022-09-28T17:31:05.027Z,99428.97
2022-09-28T17:33:32.585Z,99428.13
2022-09-28T17:36:00.637Z,99435.59
2022-09-28T17:38:28.319Z,99431.19
2022-09-28T17:40:56.227Z,99436.63
2022-09-28T17:43:23.896Z,99439.50
2022-09-28T17:45:52.885Z,99437.84
2022-09-28T17:48:21.938Z,99439.69
2022-09-28T17:50:49.427Z,99440.72
2022-09-28T17:53:17.004Z,99432.97
2022-09-28T17:55:44.466Z,99437.34
2022-09-28T17:58:18.483Z,99439.38
2022-09-28T18:00:46.348Z,99435.66
2022-09-28T18:03:16.323Z,99436.84
2022-09-28T18:05:44.168Z,99446.84
2022-09-28T18:08:13.078Z,99445.16
2022-09-28T18:10:40.661Z,99447.03
2022-09-28T18:13:08.272Z,99450.56
2022-09-28T18:15:35.901Z,99446.84
2022-09-28T18:18:03.465Z,99447.22
2022-09-28T18:20:32.390Z,99452.63
2022-09-28T18:23:00.025Z,99452.81
2022-09-28T18:25:27.804Z,99460.91
2022-09-28T18:27:57.406Z,99461.09
2022-09-28T18:30:25.388Z,99461.28
2022-09-28T18:32:52.905Z,99457.72
2022-09-28T18:35:22.991Z,99457.72
2022-09-28T18:37:52.440Z,99464.16
2022-09-28T18:40:20.472Z,99475.16
2022-09-28T18:42:48.703Z,99469.56
2022-09-28T18:45:17.247Z,99475.00
2022-09-28T18:47:45.194Z,99476.00
2022-09-28T18:50:13.017Z,99480.75
2022-09-28T18:52:40.629Z,99480.75
2022-09-28T18:55:09.625Z,99485.34
2022-09-28T18:57:38.993Z,99480.94
2022-09-28T19:00:07.197Z,99492.41
2022-09-28T19:02:35.268Z,99493.44
2022-09-28T19:05:03.004Z,99494.81
2022-09-28T19:07:31.658Z,99496.50
2022-09-28T19:09:59.187Z,99494.63
2022-09-28T19:12:28.231Z,99495.66
2022-09-28T19:14:56.016Z,99506.28
2022-09-28T19:17:23.738Z,99508.16
2022-09-28T19:19:52.017Z,99501.91
2022-09-28T19:22:19.560Z,99501.06
2022-09-28T19:24:47.060Z,99504.81
2022-09-28T19:27:14.646Z,99506.47
2022-09-28T19:29:43.581Z,99510.22
2022-09-28T19:32:12.198Z,99508.53
2022-09-28T19:34:39.753Z,99512.22
2022-09-28T19:37:07.238Z,99521.03
2022-09-28T19:39:34.769Z,99508.53
2022-09-28T19:42:02.330Z,99511.88
2022-09-28T19:44:29.930Z,99515.63
2022-09-28T19:46:59.049Z,99510.56
2022-09-28T19:49:26.987Z,99516.63
2022-09-28T19:52:14.384Z,99514.09
2022-09-28T19:54:43.911Z,99518.50
2022-09-28T19:57:11.716Z,99516.81
2022-09-28T19:59:39.396Z,99518.88
2022-09-28T20:02:08.404Z,99521.75
2022-09-28T20:04:36.489Z,99522.72
2022-09-28T20:07:05.286Z,99506.00
2022-09-28T20:09:33.738Z,99517.00
2022-09-28T20:12:03.762Z,99524.28
2022-09-28T20:14:38.215Z,99536.75
2022-09-28T20:17:20.197Z,99533.22
2022-09-28T20:19:51.987Z,99541.34
2022-09-28T20:22:21.445Z,99546.09
2022-09-28T20:24:50.149Z,99549.28
2022-09-28T20:27:26.445Z,99549.28
2022-09-28T20:29:55.738Z,99549.63
2022-09-28T20:32:25.978Z,99555.53
2022-09-28T20:34:54.892Z,99557.59
2022-09-28T20:37:25.267Z,99559.63
2022-09-28T20:39:56.051Z,99565.69
2022-09-28T20:42:23.583Z,99558.75
2022-09-28T20:44:52.160Z,99561.59
2022-09-28T20:47:20.242Z,99557.06
2022-09-28T20:49:49.485Z,99568.72
2022-09-28T20:52:18.390Z,99557.06
2022-09-28T20:54:46.262Z,99565.34
2022-09-28T20:57:20.419Z,99561.47
2022-09-28T20:59:53.626Z,99566.00
2022-09-28T21:02:22.358Z,99574.31
2022-09-28T21:04:51.465Z,99577.84
2022-09-28T21:07:18.968Z,99577.84
2022-09-28T21:09:46.430Z,99583.63
2022-09-28T21:12:15.345Z,99585.31
2022-09-28T21:14:42.923Z,99592.41
2022-09-28T21:17:10.520Z,99587.00
2022-09-28T21:19:38.054Z,99584.28
2022-09-28T21:22:07.667Z,99581.41
2022-09-28T21:24:35.184Z,99586.13
2022-09-28T21:27:02.916Z,99583.97
2022-09-28T21:29:30.392Z,99599.50
2022-09-28T21:31:57.997Z,99592.09
2022-09-28T21:34:25.532Z,99595.78
2022-09-28T21:36:53.247Z,99594.06
2022-09-28T21:39:22.582Z,99596.13
2022-09-28T21:41:50.251Z,99603.75
2022-09-28T21:44:17.981Z,99604.75
2022-09-28T21:46:45.717Z,99604.59
2022-09-28T21:49:14.327Z,99607.13
2022-09-28T21:51:41.971Z,99612.53
2022-09-28T21:54:09.619Z,99604.41
2022-09-28T21:56:38.654Z,99607.13
2022-09-28T21:59:06.460Z,99623.19
2022-09-28T22:01:34.111Z,99608.66
2022-09-28T22:04:08.908Z,99618.81
2022-09-28T22:06:36.525Z,99612.34
2022-09-28T22:09:05.576Z,99605.28
2022-09-28T22:11:33.379Z,99612.34
2022-09-28T22:14:02.376Z,99616.09
2022-09-28T22:16:30.629Z,99616.09
2022-09-28T22:19:04.361Z,99616.94
2022-09-28T22:21:36.635Z,99615.22
2022-09-28T22:24:04.596Z,99609.00
2022-09-28T22:26:34.005Z,99615.22
2022-09-28T22:29:03.854Z,99624.22
2022-09-28T22:31:35.189Z,99624.00
2022-09-28T22:34:05.849Z,99613.41
2022-09-28T22:36:33.718Z,99610.69
2022-09-28T22:39:01.915Z,99617.78
2022-09-28T22:41:30.553Z,99620.31
2022-09-28T22:44:20.819Z,99624.88
2022-09-28T22:47:58.899Z,99622.53
2022-09-28T22:50:28.595Z,99632.69
2022-09-28T23:45:36.131Z,99627.75
2022-09-28T23:48:03.664Z,99621.31
2022-09-28T23:50:31.264Z,99628.59
2022-09-28T23:52:58.782Z,99630.28
2022-09-28T23:55:26.285Z,99638.25
2022-09-28T23:57:55.633Z,99643.81
